AAL395 KRDU-KMIA
Flight info
| Callsign | AAL395 |
|---|---|
| Flight time | 1h 50m |
| Altitude | 34000 |
| Route | ROZBO5 ROZBO GARIC SPOOF Y313 HOAGG BNFSH3 |
| Aircraft | B38M/M-SDE1FGHILORVWXY/HB1 |
Departure
| Time | 2026-05-04 17:21 |
|---|---|
| Airport | Raleigh-Durham International Airport (KRDU) |
Arrival
| Time | 2026-05-04 19:11 |
|---|---|
| Airport | Miami International Airport (KMIA) |
| Time | Latitude | Longitude | Altitude | Speed | Heading |
|---|---|---|---|---|---|
| 2026-05-04 16:46 | 35.87904 | -78.79238 | 425 ft | 0 kts | 134° |
| 2026-05-04 17:04 | 35.87905 | -78.79240 | 444 ft | 2 kts | 134° |
| 2026-05-04 17:04 | 35.87930 | -78.79282 | 414 ft | 4 kts | 102° |
| 2026-05-04 17:05 | 35.87924 | -78.79313 | 421 ft | 0 kts | 46° |
| 2026-05-04 17:15 | 35.87929 | -78.79307 | 419 ft | 6 kts | 46° |
| 2026-05-04 17:15 | 35.88007 | -78.79210 | 422 ft | 9 kts | 43° |
| 2026-05-04 17:16 | 35.88130 | -78.79056 | 421 ft | 20 kts | 47° |
| 2026-05-04 17:16 | 35.88413 | -78.78704 | 419 ft | 18 kts | 45° |
| 2026-05-04 17:17 | 35.88501 | -78.78595 | 423 ft | 18 kts | 45° |
| 2026-05-04 17:17 | 35.88804 | -78.78221 | 420 ft | 23 kts | 45° |
| 2026-05-04 17:18 | 35.88916 | -78.78083 | 420 ft | 22 kts | 44° |
| 2026-05-04 17:18 | 35.89093 | -78.77787 | 418 ft | 21 kts | 45° |
| 2026-05-04 17:19 | 35.89297 | -78.77723 | 426 ft | 16 kts | 315° |
| 2026-05-04 17:19 | 35.89309 | -78.77737 | 426 ft | 5 kts | 314° |
| 2026-05-04 17:20 | 35.89311 | -78.77886 | 416 ft | 11 kts | 221° |
| 2026-05-04 17:20 | 35.89128 | -78.78115 | 416 ft | 73 kts | 225° |
| 2026-05-04 17:20 | 35.88585 | -78.78788 | 419 ft | 145 kts | 225° |
| 2026-05-04 17:21 | 35.86807 | -78.80984 | 1050 ft | 196 kts | 226° |
| 2026-05-04 17:21 | 35.84787 | -78.83168 | 2243 ft | 197 kts | 204° |
| 2026-05-04 17:22 | 35.83426 | -78.83612 | 2820 ft | 208 kts | 195° |
| 2026-05-04 17:22 | 35.82021 | -78.83928 | 3654 ft | 202 kts | 192° |
| 2026-05-04 17:23 | 35.77775 | -78.84839 | 5373 ft | 230 kts | 171° |
| 2026-05-04 17:23 | 35.76234 | -78.84021 | 5918 ft | 251 kts | 159° |
| 2026-05-04 17:23 | 35.72948 | -78.82072 | 6933 ft | 270 kts | 160° |
| 2026-05-04 17:24 | 35.71232 | -78.81102 | 7421 ft | 272 kts | 160° |
| 2026-05-04 17:24 | 35.65901 | -78.78217 | 8938 ft | 289 kts | 161° |
| 2026-05-04 17:25 | 35.64050 | -78.77240 | 9455 ft | 296 kts | 161° |
| 2026-05-04 17:25 | 35.60191 | -78.75213 | 10268 ft | 317 kts | 161° |
| 2026-05-04 17:26 | 35.55801 | -78.72924 | 10686 ft | 367 kts | 160° |
| 2026-05-04 17:26 | 35.48309 | -78.70005 | 12648 ft | 379 kts | 178° |
| 2026-05-04 17:27 | 35.43001 | -78.69336 | 14071 ft | 389 kts | 178° |
| 2026-05-04 17:27 | 35.37600 | -78.68636 | 15399 ft | 396 kts | 178° |
| 2026-05-04 17:28 | 35.32081 | -78.67871 | 16753 ft | 402 kts | 178° |
| 2026-05-04 17:29 | 35.23602 | -78.66665 | 18597 ft | 413 kts | 177° |
| 2026-05-04 17:29 | 35.14970 | -78.65433 | 20244 ft | 422 kts | 178° |
| 2026-05-04 17:30 | 35.06150 | -78.64180 | 21804 ft | 431 kts | 178° |
| 2026-05-04 17:31 | 35.00144 | -78.63327 | 22807 ft | 437 kts | 178° |
| 2026-05-04 17:31 | 34.91290 | -78.60260 | 24268 ft | 452 kts | 157° |
| 2026-05-04 17:32 | 34.85660 | -78.56724 | 25010 ft | 458 kts | 157° |
| 2026-05-04 17:33 | 34.77078 | -78.51449 | 26159 ft | 464 kts | 158° |
| 2026-05-04 17:33 | 34.74213 | -78.49719 | 26516 ft | 466 kts | 158° |
| 2026-05-04 17:34 | 34.65422 | -78.44436 | 27563 ft | 471 kts | 159° |
| 2026-05-04 17:34 | 34.62496 | -78.42682 | 27901 ft | 473 kts | 159° |
| 2026-05-04 17:35 | 34.53566 | -78.37336 | 28815 ft | 480 kts | 159° |
| 2026-05-04 17:35 | 34.47553 | -78.33740 | 29531 ft | 481 kts | 159° |
| 2026-05-04 17:35 | 34.44562 | -78.31951 | 30014 ft | 478 kts | 159° |
| 2026-05-04 17:36 | 34.41619 | -78.30191 | 30414 ft | 476 kts | 160° |
| 2026-05-04 17:36 | 34.38638 | -78.28413 | 30694 ft | 477 kts | 160° |
| 2026-05-04 17:36 | 34.35637 | -78.26625 | 30979 ft | 478 kts | 160° |
| 2026-05-04 17:36 | 34.32687 | -78.24870 | 31316 ft | 477 kts | 160° |
| 2026-05-04 17:37 | 34.29706 | -78.23096 | 31694 ft | 476 kts | 160° |
| 2026-05-04 17:37 | 34.26734 | -78.21327 | 32042 ft | 475 kts | 160° |
| 2026-05-04 17:37 | 34.23757 | -78.19559 | 32352 ft | 475 kts | 160° |
| 2026-05-04 17:37 | 34.20826 | -78.17819 | 32652 ft | 474 kts | 160° |
| 2026-05-04 17:38 | 34.17859 | -78.16060 | 32980 ft | 474 kts | 160° |
| 2026-05-04 17:38 | 34.14897 | -78.14304 | 33298 ft | 473 kts | 160° |
| 2026-05-04 17:38 | 34.11949 | -78.12559 | 33651 ft | 471 kts | 160° |
| 2026-05-04 17:38 | 34.09010 | -78.10820 | 33989 ft | 470 kts | 160° |
| 2026-05-04 17:39 | 34.03126 | -78.07348 | 34135 ft | 475 kts | 160° |
| 2026-05-04 17:39 | 33.97186 | -78.03842 | 34126 ft | 473 kts | 160° |
| 2026-05-04 17:40 | 33.91303 | -78.00375 | 34138 ft | 468 kts | 161° |
| 2026-05-04 17:40 | 33.85226 | -77.98016 | 34136 ft | 451 kts | 178° |
| 2026-05-04 17:41 | 33.79076 | -77.97504 | 34133 ft | 444 kts | 184° |
| 2026-05-04 17:41 | 33.72882 | -77.97162 | 34138 ft | 445 kts | 184° |
| 2026-05-04 17:42 | 33.66712 | -77.96787 | 34139 ft | 446 kts | 184° |
| 2026-05-04 17:42 | 33.60511 | -77.96381 | 34114 ft | 446 kts | 183° |
| 2026-05-04 17:43 | 33.54310 | -77.95964 | 34135 ft | 447 kts | 183° |
| 2026-05-04 17:43 | 33.48094 | -77.95546 | 34145 ft | 447 kts | 183° |
| 2026-05-04 17:44 | 33.41903 | -77.95133 | 34147 ft | 447 kts | 183° |
| 2026-05-04 17:44 | 33.35683 | -77.94720 | 34124 ft | 447 kts | 183° |
| 2026-05-04 17:45 | 33.29469 | -77.94306 | 34137 ft | 446 kts | 183° |
| 2026-05-04 17:45 | 33.23269 | -77.93895 | 34143 ft | 446 kts | 183° |
| 2026-05-04 17:46 | 33.17111 | -77.93487 | 34151 ft | 445 kts | 184° |
| 2026-05-04 17:46 | 33.10910 | -77.93076 | 34151 ft | 445 kts | 184° |
| 2026-05-04 17:47 | 33.04726 | -77.92667 | 34149 ft | 444 kts | 184° |
| 2026-05-04 17:47 | 32.98590 | -77.92263 | 34149 ft | 444 kts | 184° |
| 2026-05-04 17:48 | 32.92426 | -77.91857 | 34149 ft | 443 kts | 184° |
| 2026-05-04 17:48 | 32.86258 | -77.91452 | 34150 ft | 443 kts | 184° |
| 2026-05-04 17:49 | 32.81136 | -77.91116 | 34151 ft | 443 kts | 184° |
| 2026-05-04 17:49 | 32.73959 | -77.90647 | 34151 ft | 443 kts | 184° |
| 2026-05-04 17:50 | 32.68794 | -77.90350 | 34147 ft | 440 kts | 187° |
| 2026-05-04 17:50 | 32.62914 | -77.91432 | 34159 ft | 426 kts | 202° |
| 2026-05-04 17:51 | 32.57202 | -77.93343 | 34125 ft | 426 kts | 202° |
| 2026-05-04 17:51 | 32.51490 | -77.95236 | 34147 ft | 426 kts | 201° |
| 2026-05-04 17:52 | 32.45752 | -77.97108 | 34157 ft | 427 kts | 201° |
| 2026-05-04 17:52 | 32.40049 | -77.98954 | 34157 ft | 428 kts | 201° |
| 2026-05-04 17:53 | 32.34290 | -78.00811 | 34156 ft | 429 kts | 201° |
| 2026-05-04 17:53 | 32.28517 | -78.02672 | 34148 ft | 429 kts | 201° |
| 2026-05-04 17:54 | 32.22745 | -78.04529 | 34160 ft | 430 kts | 201° |
| 2026-05-04 17:54 | 32.16993 | -78.06379 | 34153 ft | 430 kts | 201° |
| 2026-05-04 17:55 | 32.11209 | -78.08236 | 34156 ft | 430 kts | 201° |
| 2026-05-04 17:55 | 32.05461 | -78.10078 | 34110 ft | 430 kts | 202° |
| 2026-05-04 17:56 | 31.99682 | -78.11928 | 34143 ft | 430 kts | 202° |
| 2026-05-04 17:56 | 31.93912 | -78.13774 | 34155 ft | 430 kts | 202° |
| 2026-05-04 17:57 | 31.88128 | -78.15622 | 34155 ft | 430 kts | 202° |
| 2026-05-04 17:57 | 31.82349 | -78.17466 | 34157 ft | 430 kts | 202° |
| 2026-05-04 17:58 | 31.76577 | -78.19305 | 34147 ft | 429 kts | 202° |
| 2026-05-04 17:58 | 31.70807 | -78.21141 | 34150 ft | 430 kts | 202° |
| 2026-05-04 17:59 | 31.65025 | -78.22979 | 34153 ft | 430 kts | 202° |
| 2026-05-04 18:00 | 31.56367 | -78.25728 | 34152 ft | 430 kts | 202° |
| 2026-05-04 18:00 | 31.50587 | -78.27561 | 34138 ft | 430 kts | 203° |
| 2026-05-04 18:01 | 31.44840 | -78.29394 | 34148 ft | 430 kts | 204° |
| 2026-05-04 18:01 | 31.39081 | -78.31318 | 34157 ft | 431 kts | 204° |
| 2026-05-04 18:02 | 31.30420 | -78.34238 | 34147 ft | 432 kts | 204° |
| 2026-05-04 18:02 | 31.24624 | -78.36178 | 34126 ft | 432 kts | 204° |
| 2026-05-04 18:03 | 31.18859 | -78.38102 | 34149 ft | 432 kts | 204° |
| 2026-05-04 18:03 | 31.13059 | -78.40035 | 34151 ft | 433 kts | 204° |
| 2026-05-04 18:04 | 31.07295 | -78.41954 | 34147 ft | 433 kts | 204° |
| 2026-05-04 18:05 | 30.98579 | -78.44851 | 34123 ft | 433 kts | 205° |
| 2026-05-04 18:05 | 30.92781 | -78.46775 | 34142 ft | 433 kts | 205° |
| 2026-05-04 18:06 | 30.84068 | -78.49662 | 34145 ft | 433 kts | 205° |
| 2026-05-04 18:06 | 30.78290 | -78.51573 | 34145 ft | 434 kts | 205° |
| 2026-05-04 18:07 | 30.72471 | -78.53495 | 34088 ft | 434 kts | 205° |
| 2026-05-04 18:07 | 30.66662 | -78.55411 | 34128 ft | 433 kts | 205° |
| 2026-05-04 18:08 | 30.60884 | -78.57317 | 34143 ft | 433 kts | 205° |
| 2026-05-04 18:08 | 30.55077 | -78.59229 | 34141 ft | 434 kts | 205° |
| 2026-05-04 18:09 | 30.43476 | -78.63042 | 34120 ft | 434 kts | 205° |
| 2026-05-04 18:10 | 30.37684 | -78.64941 | 34129 ft | 434 kts | 205° |
| 2026-05-04 18:10 | 30.31874 | -78.66845 | 34137 ft | 434 kts | 205° |
| 2026-05-04 18:11 | 30.26050 | -78.68753 | 34139 ft | 434 kts | 205° |
| 2026-05-04 18:11 | 30.20262 | -78.70644 | 34132 ft | 434 kts | 205° |
| 2026-05-04 18:12 | 30.14439 | -78.72545 | 34134 ft | 434 kts | 205° |
| 2026-05-04 18:12 | 30.08616 | -78.74447 | 34134 ft | 433 kts | 205° |
| 2026-05-04 18:13 | 30.02855 | -78.76329 | 34130 ft | 433 kts | 205° |
| 2026-05-04 18:14 | 29.94144 | -78.79171 | 34130 ft | 432 kts | 205° |
| 2026-05-04 18:14 | 29.88380 | -78.81049 | 34122 ft | 431 kts | 205° |
| 2026-05-04 18:15 | 29.76789 | -78.84688 | 34120 ft | 437 kts | 199° |
| 2026-05-04 18:16 | 29.70734 | -78.85559 | 34132 ft | 443 kts | 195° |
| 2026-05-04 18:16 | 29.64575 | -78.86245 | 34127 ft | 443 kts | 195° |
| 2026-05-04 18:17 | 29.55397 | -78.87388 | 34112 ft | 441 kts | 196° |
| 2026-05-04 18:18 | 29.46267 | -78.88611 | 34112 ft | 441 kts | 196° |
| 2026-05-04 18:18 | 29.40149 | -78.89436 | 34122 ft | 442 kts | 196° |
| 2026-05-04 18:19 | 29.31019 | -78.90660 | 34108 ft | 442 kts | 196° |
| 2026-05-04 18:19 | 29.24895 | -78.91480 | 34115 ft | 442 kts | 196° |
| 2026-05-04 18:20 | 29.18774 | -78.92298 | 34114 ft | 442 kts | 196° |
| 2026-05-04 18:20 | 29.12683 | -78.93110 | 34110 ft | 443 kts | 196° |
| 2026-05-04 18:21 | 29.06549 | -78.93928 | 34068 ft | 443 kts | 196° |
| 2026-05-04 18:21 | 29.00428 | -78.94742 | 34096 ft | 442 kts | 196° |
| 2026-05-04 18:22 | 28.94346 | -78.95551 | 34109 ft | 443 kts | 196° |
| 2026-05-04 18:22 | 28.88219 | -78.96366 | 34104 ft | 443 kts | 196° |
| 2026-05-04 18:23 | 28.82079 | -78.97180 | 34104 ft | 443 kts | 196° |
| 2026-05-04 18:23 | 28.75977 | -78.97989 | 34092 ft | 443 kts | 196° |
| 2026-05-04 18:24 | 28.69841 | -78.98801 | 34099 ft | 443 kts | 196° |
| 2026-05-04 18:24 | 28.63708 | -78.99612 | 34106 ft | 444 kts | 196° |
| 2026-05-04 18:25 | 28.57569 | -79.00423 | 34097 ft | 444 kts | 196° |
| 2026-05-04 18:25 | 28.51420 | -79.01235 | 34102 ft | 444 kts | 196° |
| 2026-05-04 18:26 | 28.45299 | -79.02042 | 34079 ft | 444 kts | 195° |
| 2026-05-04 18:26 | 28.39153 | -79.02853 | 34088 ft | 444 kts | 195° |
| 2026-05-04 18:27 | 28.33037 | -79.03796 | 34074 ft | 435 kts | 203° |
| 2026-05-04 18:27 | 28.27362 | -79.05852 | 34090 ft | 429 kts | 208° |
| 2026-05-04 18:28 | 28.21720 | -79.08090 | 34037 ft | 429 kts | 207° |
| 2026-05-04 18:28 | 28.16055 | -79.10272 | 34069 ft | 430 kts | 207° |
| 2026-05-04 18:29 | 28.10361 | -79.12411 | 34077 ft | 430 kts | 206° |
| 2026-05-04 18:29 | 28.04699 | -79.14516 | 34082 ft | 431 kts | 206° |
| 2026-05-04 18:30 | 27.96140 | -79.17692 | 34079 ft | 431 kts | 206° |
| 2026-05-04 18:31 | 27.90429 | -79.19810 | 34072 ft | 431 kts | 206° |
| 2026-05-04 18:31 | 27.84724 | -79.21924 | 34069 ft | 432 kts | 206° |
| 2026-05-04 18:32 | 27.79002 | -79.24042 | 34069 ft | 432 kts | 206° |
| 2026-05-04 18:32 | 27.73311 | -79.26146 | 34069 ft | 433 kts | 206° |
| 2026-05-04 18:33 | 27.67572 | -79.28266 | 34068 ft | 433 kts | 206° |
| 2026-05-04 18:33 | 27.61848 | -79.30378 | 34059 ft | 432 kts | 206° |
| 2026-05-04 18:34 | 27.56153 | -79.32477 | 34058 ft | 433 kts | 206° |
| 2026-05-04 18:34 | 27.50425 | -79.34586 | 34058 ft | 433 kts | 206° |
| 2026-05-04 18:34 | 27.47556 | -79.35642 | 33885 ft | 436 kts | 206° |
| 2026-05-04 18:35 | 27.45642 | -79.36347 | 33520 ft | 433 kts | 206° |
| 2026-05-04 18:35 | 27.42787 | -79.37393 | 33059 ft | 427 kts | 206° |
| 2026-05-04 18:35 | 27.39067 | -79.38757 | 32451 ft | 421 kts | 206° |
| 2026-05-04 18:35 | 27.36293 | -79.39777 | 31997 ft | 416 kts | 206° |
| 2026-05-04 18:36 | 27.33550 | -79.40784 | 31558 ft | 412 kts | 206° |
| 2026-05-04 18:36 | 27.31745 | -79.41446 | 31269 ft | 410 kts | 206° |
| 2026-05-04 18:36 | 27.29043 | -79.42436 | 30835 ft | 406 kts | 206° |
| 2026-05-04 18:36 | 27.26361 | -79.43416 | 30439 ft | 403 kts | 207° |
| 2026-05-04 18:37 | 27.23708 | -79.44385 | 29993 ft | 399 kts | 207° |
| 2026-05-04 18:37 | 27.21082 | -79.45345 | 29506 ft | 396 kts | 207° |
| 2026-05-04 18:37 | 27.18469 | -79.46301 | 29021 ft | 392 kts | 206° |
| 2026-05-04 18:37 | 27.15912 | -79.47237 | 28554 ft | 389 kts | 206° |
| 2026-05-04 18:38 | 27.13353 | -79.48174 | 28089 ft | 386 kts | 206° |
| 2026-05-04 18:38 | 27.10812 | -79.49104 | 27633 ft | 383 kts | 206° |
| 2026-05-04 18:38 | 27.08291 | -79.50025 | 27187 ft | 380 kts | 206° |
| 2026-05-04 18:38 | 27.05780 | -79.50941 | 26688 ft | 377 kts | 205° |
| 2026-05-04 18:39 | 27.03291 | -79.51849 | 26263 ft | 374 kts | 205° |
| 2026-05-04 18:39 | 27.00816 | -79.52750 | 25836 ft | 372 kts | 205° |
| 2026-05-04 18:39 | 26.98363 | -79.53644 | 25413 ft | 369 kts | 205° |
| 2026-05-04 18:39 | 26.95920 | -79.54534 | 24998 ft | 367 kts | 204° |
| 2026-05-04 18:40 | 26.93525 | -79.55407 | 24592 ft | 365 kts | 204° |
| 2026-05-04 18:40 | 26.91118 | -79.56283 | 24194 ft | 363 kts | 204° |
| 2026-05-04 18:40 | 26.88720 | -79.57154 | 23781 ft | 360 kts | 204° |
| 2026-05-04 18:40 | 26.86340 | -79.58015 | 23350 ft | 358 kts | 203° |
| 2026-05-04 18:41 | 26.83968 | -79.58868 | 22879 ft | 356 kts | 203° |
| 2026-05-04 18:41 | 26.81610 | -79.59717 | 22415 ft | 355 kts | 204° |
| 2026-05-04 18:41 | 26.79265 | -79.60561 | 21960 ft | 353 kts | 204° |
| 2026-05-04 18:41 | 26.76926 | -79.61404 | 21486 ft | 351 kts | 204° |
| 2026-05-04 18:42 | 26.74635 | -79.62230 | 21055 ft | 349 kts | 204° |
| 2026-05-04 18:42 | 26.72323 | -79.63064 | 20617 ft | 347 kts | 204° |
| 2026-05-04 18:42 | 26.70027 | -79.63892 | 20190 ft | 346 kts | 204° |
| 2026-05-04 18:42 | 26.67740 | -79.64716 | 19763 ft | 344 kts | 204° |
| 2026-05-04 18:43 | 26.65464 | -79.65535 | 19348 ft | 343 kts | 204° |
| 2026-05-04 18:43 | 26.63193 | -79.66351 | 18934 ft | 341 kts | 204° |
| 2026-05-04 18:43 | 26.60929 | -79.67157 | 18528 ft | 340 kts | 203° |
| 2026-05-04 18:43 | 26.58676 | -79.67946 | 18093 ft | 339 kts | 203° |
| 2026-05-04 18:44 | 26.56429 | -79.68730 | 17631 ft | 337 kts | 203° |
| 2026-05-04 18:44 | 26.54945 | -79.69248 | 17331 ft | 336 kts | 203° |
| 2026-05-04 18:44 | 26.51965 | -79.70290 | 16734 ft | 335 kts | 203° |
| 2026-05-04 18:44 | 26.49770 | -79.71058 | 16291 ft | 334 kts | 203° |
| 2026-05-04 18:45 | 26.47556 | -79.71833 | 15840 ft | 332 kts | 204° |
| 2026-05-04 18:45 | 26.45523 | -79.72940 | 15398 ft | 321 kts | 221° |
| 2026-05-04 18:45 | 26.43906 | -79.74622 | 14993 ft | 314 kts | 231° |
| 2026-05-04 18:45 | 26.42448 | -79.76437 | 14578 ft | 313 kts | 231° |
| 2026-05-04 18:46 | 26.41013 | -79.78228 | 14171 ft | 311 kts | 231° |
| 2026-05-04 18:46 | 26.39560 | -79.80016 | 13757 ft | 310 kts | 231° |
| 2026-05-04 18:46 | 26.38121 | -79.81808 | 13282 ft | 309 kts | 234° |
| 2026-05-04 18:46 | 26.36868 | -79.83744 | 12828 ft | 306 kts | 238° |
| 2026-05-04 18:47 | 26.35685 | -79.85719 | 12379 ft | 306 kts | 238° |
| 2026-05-04 18:47 | 26.34511 | -79.87649 | 12073 ft | 301 kts | 238° |
| 2026-05-04 18:47 | 26.33345 | -79.89531 | 12038 ft | 289 kts | 237° |
| 2026-05-04 18:47 | 26.32218 | -79.91339 | 12010 ft | 278 kts | 237° |
| 2026-05-04 18:48 | 26.31137 | -79.93068 | 11990 ft | 267 kts | 238° |
| 2026-05-04 18:48 | 26.30116 | -79.94699 | 11993 ft | 260 kts | 238° |
| 2026-05-04 18:48 | 26.29092 | -79.96334 | 11994 ft | 257 kts | 238° |
| 2026-05-04 18:48 | 26.28070 | -79.97966 | 12007 ft | 261 kts | 237° |
| 2026-05-04 18:49 | 26.27018 | -79.99643 | 12007 ft | 266 kts | 237° |
| 2026-05-04 18:49 | 26.25894 | -80.01277 | 11995 ft | 268 kts | 226° |
| 2026-05-04 18:49 | 26.24296 | -80.02377 | 12011 ft | 273 kts | 207° |
| 2026-05-04 18:49 | 26.22453 | -80.02975 | 12010 ft | 277 kts | 198° |
| 2026-05-04 18:50 | 26.20547 | -80.03395 | 11985 ft | 279 kts | 196° |
| 2026-05-04 18:50 | 26.18639 | -80.03789 | 11996 ft | 278 kts | 197° |
| 2026-05-04 18:50 | 26.16735 | -80.04191 | 12000 ft | 278 kts | 197° |
| 2026-05-04 18:50 | 26.14834 | -80.04605 | 11993 ft | 279 kts | 197° |
| 2026-05-04 18:51 | 26.12937 | -80.05029 | 12000 ft | 279 kts | 197° |
| 2026-05-04 18:51 | 26.11044 | -80.05457 | 12026 ft | 275 kts | 197° |
| 2026-05-04 18:51 | 26.09192 | -80.05878 | 12006 ft | 276 kts | 198° |
| 2026-05-04 18:51 | 26.07277 | -80.06316 | 12014 ft | 280 kts | 197° |
| 2026-05-04 18:52 | 26.05394 | -80.06778 | 12006 ft | 279 kts | 199° |
| 2026-05-04 18:52 | 26.03543 | -80.07258 | 11988 ft | 265 kts | 199° |
| 2026-05-04 18:52 | 26.01816 | -80.07708 | 11924 ft | 247 kts | 200° |
| 2026-05-04 18:52 | 26.00158 | -80.08145 | 11551 ft | 243 kts | 200° |
| 2026-05-04 18:53 | 25.98532 | -80.08571 | 11200 ft | 237 kts | 200° |
| 2026-05-04 18:53 | 25.96937 | -80.08987 | 10846 ft | 234 kts | 200° |
| 2026-05-04 18:53 | 25.95355 | -80.09399 | 10497 ft | 232 kts | 199° |
| 2026-05-04 18:53 | 25.93785 | -80.09807 | 10146 ft | 231 kts | 199° |
| 2026-05-04 18:54 | 25.92316 | -80.10374 | 9742 ft | 220 kts | 219° |
| 2026-05-04 18:54 | 25.91188 | -80.11481 | 9371 ft | 213 kts | 231° |
| 2026-05-04 18:54 | 25.90191 | -80.12703 | 9002 ft | 214 kts | 232° |
| 2026-05-04 18:54 | 25.89213 | -80.13919 | 8632 ft | 215 kts | 232° |
| 2026-05-04 18:55 | 25.88269 | -80.15206 | 8248 ft | 213 kts | 244° |
| 2026-05-04 18:55 | 25.87823 | -80.18395 | 8082 ft | 215 kts | 268° |
| 2026-05-04 18:55 | 25.87799 | -80.20049 | 8027 ft | 214 kts | 268° |
| 2026-05-04 18:56 | 25.87759 | -80.21686 | 8020 ft | 210 kts | 268° |
| 2026-05-04 18:56 | 25.87718 | -80.23289 | 8004 ft | 203 kts | 268° |
| 2026-05-04 18:56 | 25.87672 | -80.24807 | 7979 ft | 191 kts | 268° |
| 2026-05-04 18:56 | 25.87626 | -80.26267 | 7997 ft | 189 kts | 268° |
| 2026-05-04 18:57 | 25.87578 | -80.27746 | 7692 ft | 199 kts | 268° |
| 2026-05-04 18:57 | 25.87529 | -80.29280 | 7312 ft | 200 kts | 268° |
| 2026-05-04 18:57 | 25.87480 | -80.30843 | 6884 ft | 203 kts | 268° |
| 2026-05-04 18:57 | 25.87429 | -80.32413 | 6466 ft | 204 kts | 268° |
| 2026-05-04 18:58 | 25.87378 | -80.33997 | 6031 ft | 205 kts | 269° |
| 2026-05-04 18:58 | 25.87325 | -80.35588 | 5581 ft | 207 kts | 269° |
| 2026-05-04 18:58 | 25.87272 | -80.37192 | 5164 ft | 208 kts | 269° |
| 2026-05-04 18:58 | 25.87201 | -80.38749 | 5056 ft | 194 kts | 270° |
| 2026-05-04 18:59 | 25.87145 | -80.40221 | 5007 ft | 187 kts | 269° |
| 2026-05-04 18:59 | 25.87107 | -80.41648 | 4999 ft | 185 kts | 270° |
| 2026-05-04 18:59 | 25.87062 | -80.43065 | 5002 ft | 188 kts | 269° |
| 2026-05-04 18:59 | 25.87007 | -80.44526 | 5010 ft | 188 kts | 269° |
| 2026-05-04 19:00 | 25.86957 | -80.45986 | 5026 ft | 193 kts | 270° |
| 2026-05-04 19:00 | 25.86881 | -80.47494 | 5017 ft | 196 kts | 268° |
| 2026-05-04 19:00 | 25.86773 | -80.48996 | 4983 ft | 195 kts | 266° |
| 2026-05-04 19:00 | 25.86667 | -80.50463 | 4960 ft | 187 kts | 267° |
| 2026-05-04 19:01 | 25.86546 | -80.51880 | 4974 ft | 189 kts | 267° |
| 2026-05-04 19:01 | 25.86415 | -80.53347 | 4979 ft | 192 kts | 267° |
| 2026-05-04 19:01 | 25.86299 | -80.54821 | 4991 ft | 192 kts | 266° |
| 2026-05-04 19:01 | 25.86210 | -80.56298 | 4987 ft | 192 kts | 266° |
| 2026-05-04 19:02 | 25.86115 | -80.57779 | 4986 ft | 191 kts | 266° |
| 2026-05-04 19:02 | 25.86002 | -80.59231 | 4981 ft | 187 kts | 265° |
| 2026-05-04 19:02 | 25.85892 | -80.60654 | 4986 ft | 187 kts | 266° |
| 2026-05-04 19:02 | 25.85774 | -80.62115 | 4981 ft | 190 kts | 264° |
| 2026-05-04 19:03 | 25.85316 | -80.63483 | 4982 ft | 192 kts | 235° |
| 2026-05-04 19:03 | 25.84273 | -80.64437 | 4857 ft | 203 kts | 206° |
| 2026-05-04 19:03 | 25.82867 | -80.64756 | 4463 ft | 209 kts | 176° |
| 2026-05-04 19:03 | 25.81492 | -80.64294 | 4080 ft | 207 kts | 147° |
| 2026-05-04 19:04 | 25.80504 | -80.63181 | 3714 ft | 201 kts | 115° |
| 2026-05-04 19:04 | 25.80044 | -80.61741 | 3379 ft | 196 kts | 102° |
| 2026-05-04 19:04 | 25.79672 | -80.60307 | 3044 ft | 194 kts | 103° |
| 2026-05-04 19:04 | 25.79301 | -80.58952 | 2979 ft | 176 kts | 102° |
| 2026-05-04 19:05 | 25.78964 | -80.57645 | 2975 ft | 173 kts | 91° |
| 2026-05-04 19:05 | 25.79008 | -80.56321 | 3004 ft | 173 kts | 82° |
| 2026-05-04 19:05 | 25.79061 | -80.54984 | 2998 ft | 173 kts | 83° |
| 2026-05-04 19:05 | 25.79111 | -80.53634 | 2985 ft | 176 kts | 84° |
| 2026-05-04 19:06 | 25.79160 | -80.52273 | 2991 ft | 178 kts | 82° |
| 2026-05-04 19:06 | 25.79223 | -80.50891 | 2995 ft | 179 kts | 82° |
| 2026-05-04 19:06 | 25.79288 | -80.49525 | 2970 ft | 176 kts | 85° |
| 2026-05-04 19:06 | 25.79298 | -80.48216 | 2947 ft | 161 kts | 83° |
| 2026-05-04 19:07 | 25.79369 | -80.47008 | 2885 ft | 158 kts | 82° |
| 2026-05-04 19:07 | 25.79434 | -80.45812 | 2716 ft | 155 kts | 84° |
| 2026-05-04 19:07 | 25.79486 | -80.44617 | 2532 ft | 155 kts | 82° |
| 2026-05-04 19:07 | 25.79535 | -80.43423 | 2318 ft | 154 kts | 83° |
| 2026-05-04 19:08 | 25.79580 | -80.42261 | 2108 ft | 151 kts | 84° |
| 2026-05-04 19:08 | 25.79626 | -80.41111 | 1915 ft | 146 kts | 82° |
| 2026-05-04 19:08 | 25.79672 | -80.40000 | 1719 ft | 143 kts | 82° |
| 2026-05-04 19:08 | 25.79716 | -80.38908 | 1543 ft | 144 kts | 84° |
| 2026-05-04 19:09 | 25.79759 | -80.37813 | 1363 ft | 142 kts | 84° |
| 2026-05-04 19:09 | 25.79805 | -80.36684 | 1181 ft | 149 kts | 82° |
| 2026-05-04 19:09 | 25.79851 | -80.35529 | 975 ft | 147 kts | 83° |
| 2026-05-04 19:09 | 25.79896 | -80.34411 | 806 ft | 142 kts | 83° |
| 2026-05-04 19:10 | 25.79913 | -80.33304 | 612 ft | 143 kts | 84° |
| 2026-05-04 19:10 | 25.79973 | -80.32189 | 412 ft | 147 kts | 83° |
| 2026-05-04 19:10 | 25.80030 | -80.31038 | 256 ft | 151 kts | 84° |
| 2026-05-04 19:10 | 25.80086 | -80.29880 | 65 ft | 146 kts | 83° |
| 2026-05-04 19:11 | 25.80130 | -80.28827 | 16 ft | 121 kts | 86° |
| 2026-05-04 19:11 | 25.80152 | -80.28147 | 12 ft | 42 kts | 90° |